Time;durP1;ratioP1;P1;durP2;ratioP2;P2;SDS_P1;SDS_P2;PMS_P1;PMS_P2;Temp;Humidity;BMP_temperature;BMP_pressure;BME280_temperature;BME280_humidity;BME280_pressure;Samples;Min_cycle;Max_cycle;Signal;HPM_P1;HPM_P2
2021/01/05 00:01:35;;;;;;;35.67;13.05;;;3.30;99.90;;;;;;5060913;28;20510;-80
2021/01/05 00:04:00;;;;;;;34.63;14.05;;;3.30;99.90;;;;;;5059692;28;20037;-80
2021/01/05 00:06:26;;;;;;;33.83;13.65;;;3.30;99.90;;;;;;5055690;28;20020;-80
2021/01/05 00:08:52;;;;;;;37.88;13.40;;;3.30;99.90;;;;;;5054429;28;20051;-79
2021/01/05 00:11:17;;;;;;;34.22;12.50;;;3.30;99.90;;;;;;5059670;28;20031;-80
2021/01/05 00:13:43;;;;;;;36.83;13.57;;;3.20;99.90;;;;;;5058469;28;20024;-80
2021/01/05 00:16:08;;;;;;;34.45;12.90;;;3.30;99.90;;;;;;5058733;28;20059;-80
2021/01/05 00:18:34;;;;;;;35.70;14.48;;;3.30;99.90;;;;;;5063315;28;20483;-80
2021/01/05 00:20:59;;;;;;;34.72;13.52;;;3.30;99.90;;;;;;5059837;28;20875;-80
2021/01/05 00:23:25;;;;;;;30.40;12.88;;;3.30;99.90;;;;;;5064809;28;20025;-80
2021/01/05 00:25:50;;;;;;;40.90;13.23;;;3.30;99.90;;;;;;5063544;28;20447;-80
2021/01/05 00:28:16;;;;;;;31.50;12.88;;;3.40;99.90;;;;;;5058177;28;20066;-80
2021/01/05 00:30:41;;;;;;;31.73;13.18;;;3.40;99.90;;;;;;5053892;28;20045;-80
2021/01/05 00:33:08;;;;;;;30.75;12.98;;;3.40;99.90;;;;;;5055821;28;20033;-80
2021/01/05 00:35:36;;;;;;;30.02;13.50;;;3.40;99.90;;;;;;5060004;28;20029;-80
2021/01/05 00:38:09;;;;;;;32.65;12.82;;;3.30;99.90;;;;;;5070637;28;20033;-80
2021/01/05 00:40:34;;;;;;;28.48;12.68;;;3.30;99.90;;;;;;5060809;28;20035;-80
2021/01/05 00:43:00;;;;;;;27.60;12.23;;;3.20;99.90;;;;;;5056518;28;20029;-80
2021/01/05 00:45:31;;;;;;;28.88;11.95;;;3.20;99.90;;;;;;5065250;28;20494;-80
2021/01/05 00:47:57;;;;;;;26.25;12.23;;;3.30;99.90;;;;;;5062091;28;20075;-80
2021/01/05 00:50:23;;;;;;;26.38;11.38;;;3.30;99.90;;;;;;5059302;28;20042;-80
2021/01/05 00:52:50;;;;;;;29.08;11.10;;;3.30;99.90;;;;;;5057505;28;20415;-80
2021/01/05 00:55:15;;;;;;;26.38;12.05;;;3.30;99.90;;;;;;5059913;28;20024;-80
2021/01/05 00:57:41;;;;;;;25.00;10.77;;;3.30;99.90;;;;;;5060716;28;20025;-79
2021/01/05 01:00:11;;;;;;;21.95;10.57;;;3.30;99.90;;;;;;5051093;28;20100;-80
2021/01/05 01:02:37;;;;;;;25.75;10.70;;;3.30;99.90;;;;;;5054660;28;20064;-80
2021/01/05 01:05:02;;;;;;;22.88;11.07;;;3.40;99.90;;;;;;5055863;28;20056;-80
2021/01/05 01:07:28;;;;;;;25.08;11.30;;;3.40;99.90;;;;;;5057648;28;20082;-80
2021/01/05 01:09:53;;;;;;;25.00;11.65;;;3.30;99.90;;;;;;5065807;28;20431;-80
2021/01/05 01:12:24;;;;;;;29.85;11.75;;;3.40;99.90;;;;;;5059743;28;20436;-80
2021/01/05 01:14:51;;;;;;;24.88;11.88;;;3.20;99.90;;;;;;5062039;28;20052;-80
2021/01/05 01:17:18;;;;;;;26.00;12.30;;;3.20;99.90;;;;;;5058691;28;20037;-80
2021/01/05 01:19:43;;;;;;;25.02;11.32;;;3.30;99.90;;;;;;5058390;28;20024;-80
2021/01/05 01:22:09;;;;;;;24.88;11.35;;;3.30;99.90;;;;;;5058245;28;20639;-80
2021/01/05 01:24:34;;;;;;;27.52;11.75;;;3.30;99.90;;;;;;5059285;28;20517;-79
2021/01/05 01:27:00;;;;;;;25.85;11.27;;;3.30;99.90;;;;;;5052252;28;20033;-80
2021/01/05 01:29:27;;;;;;;25.58;11.20;;;3.30;99.90;;;;;;5056089;28;20243;-80
2021/01/05 01:31:54;;;;;;;23.67;12.05;;;3.20;99.90;;;;;;5053269;28;20102;-80
2021/01/05 01:34:21;;;;;;;24.33;11.60;;;3.30;99.90;;;;;;5060831;28;20483;-79
2021/01/05 01:36:54;;;;;;;23.02;10.90;;;3.20;99.90;;;;;;5059072;28;20037;-80
2021/01/05 01:39:19;;;;;;;29.08;12.65;;;3.30;99.90;;;;;;5059548;28;20070;-80
2021/01/05 01:41:45;;;;;;;29.15;12.25;;;3.30;99.90;;;;;;5054107;28;20021;-79
2021/01/05 01:44:21;;;;;;;24.95;11.77;;;3.30;99.90;;;;;;5060323;28;20111;-80
2021/01/05 01:46:49;;;;;;;25.05;11.63;;;3.20;99.90;;;;;;5055998;28;20054;-79
2021/01/05 01:49:14;;;;;;;26.48;11.45;;;3.30;99.90;;;;;;5057780;28;20064;-80
2021/01/05 01:51:43;;;;;;;28.55;12.40;;;3.30;99.90;;;;;;5062619;28;20060;-80
2021/01/05 01:54:23;;;;;;;27.52;12.88;;;3.20;99.90;;;;;;5060301;28;20040;-80
2021/01/05 01:57:27;;;;;;;25.05;12.13;;;3.30;99.90;;;;;;5060422;28;20037;-80
2021/01/05 02:00:08;;;;;;;25.95;12.32;;;3.30;99.90;;;;;;5059796;28;20109;-80
2021/01/05 02:03:00;;;;;;;26.25;12.10;;;3.30;99.90;;;;;;5057894;28;20082;-80
2021/01/05 02:05:34;;;;;;;28.88;11.48;;;3.30;99.90;;;;;;5040363;28;20044;-80
2021/01/05 02:08:17;;;;;;;30.77;12.68;;;3.20;99.90;;;;;;5052218;28;20029;-79
2021/01/05 02:10:51;;;;;;;24.92;11.38;;;3.20;99.90;;;;;;5054769;28;20498;-80
2021/01/05 02:13:35;;;;;;;27.98;12.35;;;3.20;99.90;;;;;;5056329;28;20044;-81
2021/01/05 02:16:18;;;;;;;28.92;12.15;;;3.20;99.90;;;;;;5063588;28;20052;-80
2021/01/05 02:18:55;;;;;;;27.85;12.18;;;3.30;99.90;;;;;;5055049;28;20581;-80
2021/01/05 02:21:31;;;;;;;24.80;10.95;;;3.30;99.90;;;;;;5051915;28;20085;-80
2021/01/05 02:24:04;;;;;;;26.88;11.63;;;3.30;99.90;;;;;;5060527;28;20047;-80
2021/01/05 02:26:46;;;;;;;24.70;11.75;;;3.30;99.90;;;;;;5053166;28;20508;-80
2021/01/05 02:29:21;;;;;;;;;;;3.30;99.90;;;;;;5051681;28;20561;-80
2021/01/05 02:32:16;;;;;;;26.67;11.73;;;3.30;99.90;;;;;;5058871;28;19920;-80
2021/01/05 02:35:19;;;;;;;25.10;11.15;;;3.20;99.90;;;;;;5052021;28;20033;-80
2021/01/05 02:37:54;;;;;;;25.90;11.82;;;3.20;99.90;;;;;;5057715;28;20120;-80
2021/01/05 02:41:04;;;;;;;27.35;12.00;;;3.20;99.90;;;;;;5056207;28;20036;-80
2021/01/05 02:44:05;;;;;;;26.65;12.20;;;3.30;99.90;;;;;;4976234;28;20118;-80
2021/01/05 02:46:51;;;;;;;24.92;11.68;;;3.30;99.90;;;;;;4982575;28;20065;-80
2021/01/05 02:49:40;;;;;;;23.08;11.15;;;3.30;99.90;;;;;;5049676;28;20028;-80
2021/01/05 02:52:32;;;;;;;25.02;11.38;;;3.30;99.90;;;;;;5053683;28;20028;-80
2021/01/05 02:55:00;;;;;;;21.73;10.85;;;3.30;99.90;;;;;;5058387;28;20025;-80
2021/01/05 02:57:42;;;;;;;20.80;11.02;;;3.30;99.90;;;;;;5062794;28;20111;-80
2021/01/05 03:00:42;;;;;;;27.58;11.23;;;3.30;99.90;;;;;;5064027;28;20032;-79
2021/01/05 03:03:38;;;;;;;22.48;11.20;;;3.40;99.90;;;;;;5057968;28;20029;-80
2021/01/05 03:06:37;;;;;;;23.38;10.27;;;3.40;99.90;;;;;;5051935;28;20112;-80
2021/01/05 03:09:22;;;;;;;23.27;10.95;;;3.30;99.90;;;;;;5049831;28;20032;-79
2021/01/05 03:12:04;;;;;;;20.10;10.63;;;3.30;99.90;;;;;;5058949;28;20035;-80
2021/01/05 03:15:05;;;;;;;22.83;10.88;;;3.40;99.90;;;;;;5057848;28;20495;-79
2021/01/05 03:17:38;;;;;;;21.10;10.10;;;3.40;99.90;;;;;;5051037;28;20029;-79
2021/01/05 03:20:08;;;;;;;19.60;10.32;;;3.30;99.90;;;;;;5039208;28;20096;-80
2021/01/05 03:22:37;;;;;;;18.02;9.45;;;3.30;99.90;;;;;;5061398;28;20036;-80
2021/01/05 03:25:05;;;;;;;22.15;10.52;;;3.30;99.90;;;;;;5050319;28;20068;-80
2021/01/05 03:27:32;;;;;;;21.63;10.18;;;3.40;99.90;;;;;;5051311;28;20025;-80
2021/01/05 03:30:12;;;;;;;21.73;9.85;;;3.40;99.90;;;;;;5061063;28;20545;-80
2021/01/05 03:32:38;;;;;;;20.15;9.73;;;3.40;99.90;;;;;;5050994;28;20107;-80
2021/01/05 03:35:05;;;;;;;20.15;10.27;;;3.40;99.90;;;;;;5056911;28;20594;-80
2021/01/05 03:37:30;;;;;;;17.55;9.60;;;3.40;99.90;;;;;;5058010;28;20029;-79
2021/01/05 03:39:56;;;;;;;21.83;9.55;;;3.30;99.90;;;;;;5057886;28;20563;-79
2021/01/05 03:42:21;;;;;;;20.73;10.07;;;3.30;99.90;;;;;;5052946;28;20079;-80
2021/01/05 03:44:47;;;;;;;19.83;9.20;;;3.30;99.90;;;;;;5061387;28;20056;-79
2021/01/05 03:47:12;;;;;;;20.83;10.23;;;3.20;99.90;;;;;;5063932;28;20047;-80
2021/01/05 03:49:38;;;;;;;22.15;9.70;;;3.20;99.90;;;;;;5053285;28;20025;-79
2021/01/05 03:52:03;;;;;;;18.77;9.05;;;3.20;99.90;;;;;;5063936;28;20039;-80
2021/01/05 03:54:29;;;;;;;20.13;9.88;;;3.20;99.90;;;;;;5053357;28;20036;-80
2021/01/05 03:56:54;;;;;;;19.90;9.32;;;3.20;99.90;;;;;;5056205;28;20440;-80
2021/01/05 03:59:20;;;;;;;19.65;9.35;;;3.30;99.90;;;;;;5058399;28;20032;-80
2021/01/05 04:01:53;;;;;;;19.67;9.60;;;3.20;99.90;;;;;;5063408;28;20033;-80
2021/01/05 04:04:19;;;;;;;18.85;9.65;;;3.30;99.90;;;;;;5064068;28;20564;-79
2021/01/05 04:06:45;;;;;;;18.77;8.85;;;3.30;99.90;;;;;;5054818;28;20029;-79
2021/01/05 04:09:11;;;;;;;17.88;9.18;;;3.30;99.90;;;;;;5059810;28;20078;-80
2021/01/05 04:11:36;;;;;;;21.08;9.43;;;3.30;99.90;;;;;;5061626;28;20032;-80
2021/01/05 04:14:02;;;;;;;18.80;8.80;;;3.30;99.90;;;;;;5061108;28;20079;-80
2021/01/05 04:16:27;;;;;;;20.50;10.23;;;3.30;99.90;;;;;;5065813;28;20021;-80
2021/01/05 04:18:52;;;;;;;18.05;9.38;;;3.20;99.90;;;;;;5064882;28;20100;-79
2021/01/05 04:21:18;;;;;;;17.27;8.27;;;3.30;99.90;;;;;;5058315;28;20468;-80
2021/01/05 04:23:43;;;;;;;17.40;9.02;;;3.30;99.90;;;;;;5065229;28;20036;-80
2021/01/05 04:26:09;;;;;;;18.08;8.88;;;3.20;99.90;;;;;;5059576;28;20035;-79
2021/01/05 04:28:35;;;;;;;20.65;9.30;;;3.20;99.90;;;;;;5063477;28;20373;-79
2021/01/05 04:31:00;;;;;;;20.13;9.02;;;3.40;99.90;;;;;;5058703;28;20045;-79
2021/01/05 04:33:26;;;;;;;18.75;9.32;;;3.30;99.90;;;;;;5061333;28;20112;-79
2021/01/05 04:35:51;;;;;;;20.48;9.63;;;3.30;99.90;;;;;;5059682;28;20025;-79
2021/01/05 04:38:17;;;;;;;20.25;9.50;;;3.30;99.90;;;;;;5072495;28;20029;-79
2021/01/05 04:40:47;;;;;;;18.50;8.90;;;3.40;99.90;;;;;;5057239;28;20028;-79
2021/01/05 04:43:31;;;;;;;19.30;8.63;;;3.40;99.90;;;;;;5051158;28;20079;-79
2021/01/05 04:46:19;;;;;;;19.13;9.27;;;3.30;99.90;;;;;;5055293;28;20098;-79
2021/01/05 04:48:53;;;;;;;16.45;9.05;;;3.30;99.90;;;;;;5063665;28;20466;-79
2021/01/05 04:51:53;;;;;;;18.08;9.13;;;3.30;99.90;;;;;;5054678;28;20031;-79
2021/01/05 04:54:39;;;;;;;16.45;8.57;;;3.30;99.90;;;;;;5054875;28;20115;-79
2021/01/05 04:57:24;;;;;;;17.17;8.50;;;3.40;99.90;;;;;;5061810;28;20029;-80
2021/01/05 05:00:15;;;;;;;17.15;9.20;;;3.30;99.90;;;;;;5066335;28;20025;-79
2021/01/05 05:02:50;;;;;;;19.33;9.32;;;3.40;99.90;;;;;;5062283;28;20056;-79
2021/01/05 05:05:35;;;;;;;17.55;8.63;;;3.30;99.90;;;;;;5063010;28;20801;-79
2021/01/05 05:08:38;;;;;;;18.52;9.25;;;3.30;99.90;;;;;;5061524;28;20056;-79
2021/01/05 05:11:09;;;;;;;17.25;8.52;;;3.30;99.90;;;;;;5060031;28;20617;-79
2021/01/05 05:13:48;;;;;;;16.52;8.65;;;3.30;99.90;;;;;;5051768;28;20265;-79
2021/01/05 05:16:28;;;;;;;17.25;8.10;;;3.30;99.90;;;;;;5054914;28;20541;-79
2021/01/05 05:19:17;;;;;;;18.45;9.25;;;3.30;99.90;;;;;;5052275;28;20604;-79
2021/01/05 05:22:12;;;;;;;17.30;8.43;;;3.30;99.90;;;;;;5057972;28;20545;-79
2021/01/05 05:25:00;;;;;;;18.95;8.57;;;3.30;99.90;;;;;;5061046;28;20123;-79
2021/01/05 05:27:58;;;;;;;17.00;8.65;;;3.30;99.90;;;;;;5063870;28;20024;-79
2021/01/05 05:30:41;;;;;;;16.83;8.38;;;3.30;99.90;;;;;;5053819;28;20543;-80
2021/01/05 05:33:25;;;;;;;18.50;8.70;;;3.30;99.90;;;;;;5057221;28;20029;-80
2021/01/05 05:36:25;;;;;;;16.95;9.02;;;3.40;99.90;;;;;;5059215;28;20025;-80
2021/01/05 05:39:18;;;;;;;16.63;9.10;;;3.30;99.90;;;;;;5059060;28;20029;-80
2021/01/05 05:41:53;;;;;;;14.70;7.75;;;3.30;99.90;;;;;;5063315;28;20108;-79
2021/01/05 05:44:45;;;;;;;16.10;8.32;;;3.40;99.90;;;;;;5053524;28;20333;-79
2021/01/05 05:47:26;;;;;;;18.90;9.15;;;3.40;99.90;;;;;;5062504;28;20041;-80
2021/01/05 05:49:59;;;;;;;19.45;9.55;;;3.40;99.90;;;;;;5050189;28;20032;-80
2021/01/05 05:52:33;;;;;;;17.40;9.05;;;3.40;99.90;;;;;;5056087;28;20043;-79
2021/01/05 05:55:01;;;;;;;17.90;8.65;;;3.40;99.90;;;;;;5033175;28;20025;-79
2021/01/05 05:57:39;;;;;;;21.95;10.02;;;3.40;99.90;;;;;;5057732;28;20044;-80
2021/01/05 06:00:14;;;;;;;18.42;9.10;;;3.20;99.90;;;;;;5059389;28;20491;-79
2021/01/05 06:02:40;;;;;;;17.85;9.00;;;3.20;99.90;;;;;;5057617;28;20037;-79
2021/01/05 06:05:32;;;;;;;20.23;9.80;;;3.30;99.90;;;;;;5067081;28;20055;-80
2021/01/05 06:07:58;;;;;;;17.88;9.82;;;3.30;99.90;;;;;;5051758;28;20059;-80
2021/01/05 06:10:24;;;;;;;20.30;9.73;;;3.40;99.90;;;;;;5051122;28;20048;-79
2021/01/05 06:12:49;;;;;;;18.08;9.52;;;3.40;99.90;;;;;;5059247;28;20041;-79
2021/01/05 06:15:15;;;;;;;21.30;10.55;;;3.40;99.90;;;;;;5060048;28;20021;-80
2021/01/05 06:17:41;;;;;;;20.80;10.05;;;3.40;99.90;;;;;;5055069;28;20025;-80
2021/01/05 06:20:07;;;;;;;22.38;10.60;;;3.40;99.90;;;;;;5055724;28;20879;-79
2021/01/05 06:22:32;;;;;;;22.77;10.80;;;3.40;99.90;;;;;;5031935;28;20127;-79
2021/01/05 06:24:58;;;;;;;20.52;10.18;;;3.40;99.90;;;;;;5057724;28;20120;-79
2021/01/05 06:27:23;;;;;;;23.48;10.70;;;3.40;99.90;;;;;;5049192;28;20021;-80
2021/01/05 06:29:49;;;;;;;21.70;10.60;;;3.50;99.90;;;;;;5056442;28;20035;-79
2021/01/05 06:32:14;;;;;;;21.50;10.98;;;3.50;99.90;;;;;;5051035;28;20064;-80
2021/01/05 06:34:40;;;;;;;22.90;10.63;;;3.50;99.90;;;;;;5067202;28;20021;-80
2021/01/05 06:37:05;;;;;;;25.83;10.70;;;3.50;99.90;;;;;;5055568;28;20020;-79
2021/01/05 06:39:52;;;;;;;25.48;11.55;;;3.50;99.90;;;;;;5056336;28;20399;-77
2021/01/05 06:42:18;;;;;;;22.52;10.23;;;3.40;99.90;;;;;;5060546;28;20059;-77
2021/01/05 06:44:44;;;;;;;25.52;10.93;;;3.40;99.90;;;;;;5056591;28;20071;-78
2021/01/05 06:47:10;;;;;;;23.75;11.50;;;3.40;99.90;;;;;;5057971;28;20033;-77
2021/01/05 06:49:36;;;;;;;25.17;11.82;;;3.40;99.90;;;;;;5061077;28;20025;-76
2021/01/05 06:52:04;;;;;;;26.70;11.52;;;3.50;99.90;;;;;;5056563;28;20036;-77
2021/01/05 06:54:29;;;;;;;21.23;10.40;;;3.50;99.90;;;;;;5057231;28;20041;-78
2021/01/05 06:56:57;;;;;;;24.40;12.35;;;3.50;99.90;;;;;;5067342;28;20030;-77
2021/01/05 06:59:24;;;;;;;25.33;11.90;;;3.50;99.90;;;;;;5058884;28;20755;-75
2021/01/05 07:02:02;;;;;;;28.98;12.32;;;3.50;99.90;;;;;;5053128;28;20112;-80
2021/01/05 07:04:28;;;;;;;28.70;12.18;;;3.50;99.90;;;;;;5053654;28;20075;-75
2021/01/05 07:06:55;;;;;;;27.65;12.50;;;3.40;99.90;;;;;;5060214;28;20047;-76
2021/01/05 07:09:24;;;;;;;27.25;11.63;;;3.50;99.90;;;;;;5059253;28;20074;-81
2021/01/05 07:11:58;;;;;;;25.13;11.00;;;3.40;99.90;;;;;;5063502;28;20036;-77
2021/01/05 07:14:26;;;;;;;31.35;12.05;;;3.50;99.90;;;;;;5054073;28;20070;-76
2021/01/05 07:16:52;;;;;;;25.30;12.40;;;3.40;99.90;;;;;;5057186;28;20033;-77
2021/01/05 07:19:18;;;;;;;28.77;12.02;;;3.40;99.90;;;;;;5055640;28;20260;-81
2021/01/05 07:21:44;;;;;;;32.17;13.05;;;3.40;99.90;;;;;;5059128;28;20039;-82
2021/01/05 07:24:10;;;;;;;24.83;11.65;;;3.40;99.90;;;;;;5064777;28;20348;-82
2021/01/05 07:26:39;;;;;;;25.23;11.27;;;3.50;99.90;;;;;;5063449;28;20020;-82
2021/01/05 07:29:05;;;;;;;26.38;11.50;;;3.40;99.90;;;;;;5066257;28;20056;-82
2021/01/05 07:31:31;;;;;;;30.52;12.23;;;3.50;99.90;;;;;;5057811;28;20080;-82
2021/01/05 07:33:59;;;;;;;26.02;12.60;;;3.50;99.90;;;;;;5065178;28;20036;-81
2021/01/05 07:36:32;;;;;;;23.40;11.85;;;3.50;99.90;;;;;;5054083;28;20028;-81
2021/01/05 07:38:57;;;;;;;26.60;10.93;;;3.40;99.90;;;;;;5060310;28;20025;-81
2021/01/05 07:41:23;;;;;;;28.65;12.25;;;3.40;99.90;;;;;;5064057;28;20025;-81
2021/01/05 07:43:49;;;;;;;25.55;11.35;;;3.40;99.90;;;;;;5068245;28;20017;-81
2021/01/05 07:46:15;;;;;;;30.63;12.45;;;3.40;99.90;;;;;;5068283;28;20439;-81
2021/01/05 07:48:41;;;;;;;26.55;11.63;;;3.50;99.90;;;;;;5066752;28;20032;-81
2021/01/05 07:51:08;;;;;;;29.13;11.68;;;3.40;99.90;;;;;;5065410;28;20074;-81
2021/01/05 07:53:33;;;;;;;28.83;12.35;;;3.40;99.90;;;;;;5066094;28;20073;-81
2021/01/05 07:55:59;;;;;;;26.83;11.52;;;3.40;99.90;;;;;;5060644;28;20036;-82
2021/01/05 07:58:25;;;;;;;25.50;11.35;;;3.50;99.90;;;;;;5063859;28;20029;-82
2021/01/05 08:00:50;;;;;;;24.80;11.63;;;3.40;99.90;;;;;;5066082;28;20024;-81
2021/01/05 08:03:16;;;;;;;27.40;11.68;;;3.40;99.90;;;;;;5066510;28;20495;-81
2021/01/05 08:05:41;;;;;;;27.25;11.77;;;3.40;99.90;;;;;;5067232;28;21491;-81
2021/01/05 08:08:07;;;;;;;28.55;12.27;;;3.40;99.90;;;;;;5062519;28;20036;-81
2021/01/05 08:10:36;;;;;;;26.00;12.40;;;3.50;99.90;;;;;;5059527;28;20071;-82
2021/01/05 08:13:04;;;;;;;27.27;12.27;;;3.40;99.90;;;;;;5066409;28;20553;-82
2021/01/05 08:15:30;;;;;;;27.50;12.57;;;3.40;99.90;;;;;;5062927;28;20063;-82
2021/01/05 08:17:56;;;;;;;26.88;11.88;;;3.50;99.90;;;;;;5063514;28;20074;-82
2021/01/05 08:20:25;;;;;;;24.88;11.48;;;3.50;99.90;;;;;;5065963;28;20684;-81
2021/01/05 08:22:50;;;;;;;27.95;12.38;;;3.50;99.90;;;;;;5061763;28;20031;-82
2021/01/05 08:25:17;;;;;;;29.38;11.65;;;3.50;99.90;;;;;;5063028;28;20028;-83
2021/01/05 08:27:48;;;;;;;28.25;12.50;;;3.50;99.90;;;;;;5064965;28;20423;-83
2021/01/05 08:30:18;;;;;;;26.42;11.27;;;3.50;99.90;;;;;;5065829;28;20548;-84
2021/01/05 08:32:43;;;;;;;29.95;11.98;;;3.60;99.90;;;;;;5063919;28;20525;-85
2021/01/05 08:35:10;;;;;;;24.73;11.70;;;3.50;99.90;;;;;;5066503;28;20107;-84
2021/01/05 08:37:39;;;;;;;29.17;12.57;;;3.40;99.90;;;;;;5063689;28;20498;-84
2021/01/05 08:40:10;;;;;;;28.80;12.23;;;3.50;99.90;;;;;;5064467;28;20106;-78
2021/01/05 08:42:48;;;;;;;28.50;12.93;;;3.50;99.90;;;;;;5066165;28;20032;-78
2021/01/05 08:45:14;;;;;;;26.27;11.93;;;3.60;99.90;;;;;;5061448;28;20024;-77
2021/01/05 08:47:40;;;;;;;28.35;11.95;;;3.60;99.90;;;;;;5066142;28;20085;-77
2021/01/05 08:50:08;;;;;;;31.45;14.48;;;3.60;99.90;;;;;;5064642;28;20241;-77
2021/01/05 08:52:33;;;;;;;26.13;13.20;;;3.60;99.90;;;;;;5062191;28;20037;-76
2021/01/05 08:54:59;;;;;;;27.10;12.27;;;3.60;99.90;;;;;;5064352;28;20029;-79
2021/01/05 08:57:24;;;;;;;25.15;12.10;;;3.60;99.90;;;;;;5064799;28;20755;-79
2021/01/05 08:59:50;;;;;;;29.60;12.00;;;3.70;99.90;;;;;;5063458;28;20037;-79
2021/01/05 09:02:15;;;;;;;24.23;11.93;;;3.70;99.90;;;;;;5060820;28;20021;-86
2021/01/05 09:04:41;;;;;;;28.50;11.38;;;3.60;99.90;;;;;;5060562;28;20032;-80
2021/01/05 09:07:07;;;;;;;27.52;12.35;;;3.60;99.90;;;;;;5063869;28;20020;-78
2021/01/05 09:09:32;;;;;;;27.80;13.10;;;3.60;99.90;;;;;;5066410;28;20024;-77
2021/01/05 09:11:58;;;;;;;23.70;11.63;;;3.60;99.90;;;;;;5065104;28;20021;-76
2021/01/05 09:14:25;;;;;;;26.20;12.45;;;3.60;99.90;;;;;;5058928;28;20473;-77
2021/01/05 09:16:58;;;;;;;25.45;12.00;;;3.50;99.90;;;;;;5062417;28;20020;-78
2021/01/05 09:19:24;;;;;;;28.58;12.20;;;3.60;99.90;;;;;;5062058;28;20028;-77
2021/01/05 09:21:50;;;;;;;24.25;11.32;;;3.60;99.90;;;;;;5064928;28;20020;-78
2021/01/05 09:24:19;;;;;;;26.33;12.30;;;3.60;99.90;;;;;;5065618;28;20029;-78
2021/01/05 09:26:49;;;;;;;25.55;12.55;;;3.70;99.90;;;;;;5060636;28;20033;-81
2021/01/05 09:29:14;;;;;;;21.45;11.52;;;3.70;99.90;;;;;;5061557;28;20136;-77
2021/01/05 09:31:42;;;;;;;24.55;11.52;;;3.80;99.90;;;;;;5064718;28;20131;-78
2021/01/05 09:34:09;;;;;;;24.70;11.50;;;3.80;99.90;;;;;;5058130;28;20064;-77
2021/01/05 09:36:35;;;;;;;24.98;11.35;;;3.80;99.90;;;;;;5064593;28;20049;-79
2021/01/05 09:39:07;;;;;;;21.55;10.75;;;3.80;99.90;;;;;;5063427;28;20025;-80
2021/01/05 09:41:38;;;;;;;24.45;12.32;;;3.90;99.90;;;;;;5064712;28;20037;-78
2021/01/05 09:44:04;;;;;;;26.20;10.90;;;3.80;99.90;;;;;;5061939;28;20024;-79
2021/01/05 09:46:29;;;;;;;22.20;10.30;;;3.90;99.90;;;;;;5061989;28;20037;-79
2021/01/05 09:48:55;;;;;;;21.98;10.45;;;4.00;99.90;;;;;;5062732;28;20019;-80
2021/01/05 09:51:22;;;;;;;20.08;9.93;;;3.90;99.90;;;;;;5060876;28;20429;-80
2021/01/05 09:53:48;;;;;;;18.58;9.85;;;3.90;99.90;;;;;;5064880;28;22015;-81
2021/01/05 09:56:13;;;;;;;19.58;9.63;;;3.90;99.90;;;;;;5065715;28;20510;-81
2021/01/05 09:58:45;;;;;;;20.42;10.50;;;3.90;99.90;;;;;;5062823;28;20032;-79
2021/01/05 10:01:10;;;;;;;;;;;3.90;99.90;;;;;;5055694;28;20020;-78
2021/01/05 10:03:36;;;;;;;19.92;9.35;;;3.80;99.90;;;;;;5062184;28;19935;-79
2021/01/05 10:06:01;;;;;;;17.73;9.68;;;3.90;99.90;;;;;;5060466;28;20127;-79
2021/01/05 10:08:27;;;;;;;20.40;10.02;;;3.80;99.90;;;;;;5062682;28;20040;-80
2021/01/05 10:10:53;;;;;;;19.70;9.80;;;4.00;99.90;;;;;;5060528;28;20024;-79
2021/01/05 10:13:18;;;;;;;21.08;9.45;;;4.00;99.90;;;;;;5059778;28;20028;-80
2021/01/05 10:15:47;;;;;;;21.50;9.48;;;3.90;99.90;;;;;;5058231;28;20032;-77
2021/01/05 10:18:13;;;;;;;20.73;10.77;;;3.90;99.90;;;;;;5061894;28;20060;-77
2021/01/05 10:20:38;;;;;;;21.60;10.82;;;3.80;99.90;;;;;;5060090;28;20601;-76
2021/01/05 10:23:03;;;;;;;19.88;9.95;;;3.90;99.90;;;;;;5063612;28;20067;-77
2021/01/05 10:25:29;;;;;;;21.45;10.15;;;3.90;99.90;;;;;;5063746;28;20407;-76
2021/01/05 10:27:55;;;;;;;20.20;10.23;;;3.90;99.90;;;;;;5058313;28;20016;-76
2021/01/05 10:30:20;;;;;;;19.65;10.05;;;3.90;99.90;;;;;;5059150;28;20044;-77
2021/01/05 10:32:46;;;;;;;22.35;10.52;;;3.90;99.90;;;;;;5059407;28;20048;-77
2021/01/05 10:35:15;;;;;;;19.85;9.88;;;4.10;99.90;;;;;;5064245;28;20040;-77
2021/01/05 10:37:40;;;;;;;21.48;11.07;;;4.00;99.90;;;;;;5063894;28;20021;-77
2021/01/05 10:40:07;;;;;;;21.65;10.00;;;4.10;99.90;;;;;;5059609;28;20035;-77
2021/01/05 10:42:33;;;;;;;21.50;10.05;;;4.10;99.90;;;;;;5059258;28;20028;-78
2021/01/05 10:45:02;;;;;;;17.80;9.63;;;4.00;99.90;;;;;;5059400;28;20502;-74
2021/01/05 10:47:27;;;;;;;21.30;9.98;;;4.00;99.90;;;;;;5059423;28;20024;-74
2021/01/05 10:49:53;;;;;;;22.48;10.65;;;3.90;99.90;;;;;;5062344;28;20070;-74
2021/01/05 10:52:18;;;;;;;22.90;11.27;;;3.90;99.90;;;;;;5065103;28;20055;-74
2021/01/05 10:54:44;;;;;;;20.70;10.00;;;3.90;99.90;;;;;;5065949;28;20017;-73
2021/01/05 10:57:11;;;;;;;21.25;10.48;;;3.90;99.90;;;;;;5060345;28;20458;-74
2021/01/05 10:59:39;;;;;;;22.23;10.70;;;3.90;99.90;;;;;;5062064;28;20050;-73
2021/01/05 11:02:05;;;;;;;18.70;9.65;;;3.90;99.90;;;;;;5061531;28;20207;-74
2021/01/05 11:04:31;;;;;;;20.83;10.55;;;3.90;99.90;;;;;;5065309;28;20021;-74
2021/01/05 11:07:02;;;;;;;18.65;10.05;;;3.90;99.90;;;;;;5066222;28;20025;-74
2021/01/05 11:09:28;;;;;;;19.77;9.70;;;4.00;99.90;;;;;;5063653;28;20033;-74
2021/01/05 11:11:58;;;;;;;21.23;9.93;;;4.00;99.90;;;;;;5062450;28;20037;-74
2021/01/05 11:14:24;;;;;;;17.83;9.48;;;4.00;99.90;;;;;;5060422;28;20232;-74
2021/01/05 11:16:49;;;;;;;18.98;9.45;;;3.90;99.90;;;;;;5067069;28;20748;-74
2021/01/05 11:19:15;;;;;;;24.00;10.63;;;4.00;99.90;;;;;;5067082;28;20028;-74
2021/01/05 11:21:47;;;;;;;20.20;9.90;;;4.00;99.90;;;;;;5066381;28;20020;-74
2021/01/05 11:24:12;;;;;;;18.83;9.35;;;4.00;99.90;;;;;;5068150;28;20055;-75
2021/01/05 11:26:38;;;;;;;17.85;8.98;;;3.90;99.90;;;;;;5057571;28;20032;-75
2021/01/05 11:29:03;;;;;;;20.15;10.20;;;3.90;99.90;;;;;;5058040;28;20029;-76
2021/01/05 11:31:30;;;;;;;19.77;9.63;;;3.90;99.90;;;;;;5059031;28;20784;-77
2021/01/05 11:33:55;;;;;;;20.17;10.07;;;4.00;99.90;;;;;;5064068;28;20095;-76
2021/01/05 11:36:26;;;;;;;17.65;9.55;;;4.00;99.90;;;;;;5060758;28;20460;-76
2021/01/05 11:38:53;;;;;;;18.25;9.05;;;4.10;99.90;;;;;;5064704;28;20017;-76
2021/01/05 11:41:31;;;;;;;18.13;9.30;;;4.10;99.90;;;;;;5064810;28;20024;-77
2021/01/05 11:43:58;;;;;;;15.75;8.73;;;4.00;99.90;;;;;;5062501;28;20028;-77
2021/01/05 11:46:24;;;;;;;19.75;9.07;;;4.00;99.90;;;;;;5065414;28;20025;-77
2021/01/05 11:48:50;;;;;;;15.20;7.60;;;4.00;99.90;;;;;;5063126;28;20534;-76
2021/01/05 11:51:22;;;;;;;18.02;8.63;;;4.00;99.90;;;;;;5062063;28;20033;-77
2021/01/05 11:53:47;;;;;;;17.40;8.90;;;4.10;99.90;;;;;;5058998;28;20068;-78
2021/01/05 11:56:21;;;;;;;20.98;9.35;;;4.10;99.90;;;;;;5063231;28;20112;-78
2021/01/05 11:58:46;;;;;;;21.25;9.02;;;4.10;99.90;;;;;;5065467;28;20082;-78
2021/01/05 12:01:12;;;;;;;19.27;9.55;;;4.10;99.90;;;;;;5063415;28;20028;-77
2021/01/05 12:03:38;;;;;;;16.85;8.90;;;4.10;99.90;;;;;;5063053;28;20108;-79
2021/01/05 12:06:04;;;;;;;14.88;8.73;;;4.10;99.90;;;;;;5064103;28;20036;-79
2021/01/05 12:08:29;;;;;;;19.48;9.98;;;4.10;99.90;;;;;;5045336;28;20039;-80
2021/01/05 12:10:55;;;;;;;18.65;9.00;;;4.00;99.90;;;;;;5063279;28;20032;-81
2021/01/05 12:13:20;;;;;;;21.33;10.20;;;4.10;99.90;;;;;;5062247;28;20113;-78
2021/01/05 12:15:46;;;;;;;23.42;9.52;;;4.10;99.90;;;;;;5063857;28;20020;-81
2021/01/05 12:18:11;;;;;;;20.55;9.32;;;4.00;99.90;;;;;;5061388;28;20620;-78
2021/01/05 12:20:39;;;;;;;18.70;9.35;;;4.00;99.90;;;;;;5061830;28;20025;-76
2021/01/05 12:23:04;;;;;;;24.23;9.88;;;4.10;99.90;;;;;;5060801;28;20021;-75
2021/01/05 12:25:30;;;;;;;18.48;9.63;;;4.00;99.90;;;;;;5062445;28;20063;-75
2021/01/05 12:27:55;;;;;;;16.25;9.27;;;4.10;99.90;;;;;;5063091;28;20039;-76
2021/01/05 12:30:21;;;;;;;20.02;10.43;;;4.10;99.90;;;;;;5063191;28;20055;-77
2021/01/05 12:32:46;;;;;;;22.08;9.60;;;4.10;99.90;;;;;;5063030;28;20550;-77
2021/01/05 12:35:12;;;;;;;19.73;9.40;;;4.10;99.90;;;;;;5057941;28;20501;-77
2021/01/05 12:37:38;;;;;;;18.05;9.23;;;4.00;99.90;;;;;;5061157;28;20040;-77
2021/01/05 12:40:04;;;;;;;25.63;11.05;;;4.00;99.90;;;;;;5062167;28;20039;-76
2021/01/05 12:42:30;;;;;;;21.88;9.50;;;4.10;99.90;;;;;;5060813;28;20063;-76
2021/01/05 12:44:56;;;;;;;23.02;10.32;;;4.10;99.90;;;;;;5061661;28;20478;-76
2021/01/05 12:47:23;;;;;;;20.20;9.90;;;4.10;99.90;;;;;;5061383;28;20490;-77
2021/01/05 12:49:52;;;;;;;20.15;9.32;;;4.10;99.90;;;;;;5062653;28;20151;-79
2021/01/05 12:52:18;;;;;;;19.38;9.45;;;4.00;99.90;;;;;;5061567;28;20487;-77
2021/01/05 12:54:44;;;;;;;17.92;9.02;;;4.00;99.90;;;;;;5061250;28;20037;-77
2021/01/05 12:57:19;;;;;;;18.83;9.85;;;4.00;99.90;;;;;;5063143;28;20043;-76